Alpine Persefone — A8MS7 — position and weather

sailwx.info

Track history (hours):
 
Tides and Currents Weather Stations Pressure Air Temp Water Temp Dewpoint Dewpoint Depression Visibility Wind Speed Wind Dir Waves Ship Positions

Alpine Persefone

Last reported at 2016-Feb-09 09:32 UTC. Time now 2016-Feb-09 09:56 UTC.
Position N 42°41' E 005°20'.

Length 226 m; draft 9.9 m.

Type: Tanker. MMSI: 636013411.

Date/timePositionNaut miles runAvg speedWind from/ knotsBaromVisibWave heightAir tempDewpointWater temp
2016-Feb-09 09:32N 42°41' E 005°20'1312.9
2016-Feb-09 08:33N 42°53' E 005°13'1312.8
2016-Feb-09 07:33N 43°04' E 005°05'1312.9
2016-Feb-09 06:33N 43°16' E 004°59'9 9.4
2016-Feb-09 05:33N 43°25' E 004°53'0 0.4
2016-Feb-09 04:27N 43°25' E 004°53'0 0.0
2016-Feb-09 03:21N 43°25' E 004°53'0 0.0
2016-Feb-09 02:27N 43°25' E 004°53'0 0.0
2016-Feb-09 01:33N 43°25' E 004°53'0 0.0
2016-Feb-09 00:33N 43°25' E 004°53'0 0.0
2016-Feb-08 22:27N 43°25' E 004°53'0 0.0
2016-Feb-08 21:21N 43°25' E 004°53'0 0.0
2016-Feb-08 20:33N 43°25' E 004°53'0 0.0
2016-Feb-08 19:33N 43°25' E 004°53'0 0.0
2016-Feb-08 18:30N 43°25' E 004°53'0 0.0
2016-Feb-08 17:33N 43°25' E 004°53'0 0.0
2016-Feb-08 16:33N 43°25' E 004°53'0 0.0
2016-Feb-08 15:30N 43°25' E 004°53'0 0.0
2016-Feb-08 14:33N 43°25' E 004°53'0 0.0
2016-Feb-08 13:33N 43°25' E 004°53'0 0.0
2016-Feb-08 12:33N 43°25' E 004°53'0 0.0
2016-Feb-08 11:30N 43°25' E 004°53'0 0.0
2016-Feb-08 10:33N 43°25' E 004°53'0 0.0
2016-Feb-08 09:18N 43°25' E 004°53'0 0.0
2016-Feb-08 08:33N 43°25' E 004°53'0 0.0
2016-Feb-08 07:15N 43°25' E 004°53'0 0.0
2016-Feb-08 06:15N 43°25' E 004°53'0 0.0
2016-Feb-08 05:27N 43°25' E 004°53'0 0.0
2016-Feb-08 04:24N 43°25' E 004°53'0 0.0
2016-Feb-08 03:33N 43°25' E 004°53'0 0.0
2016-Feb-08 02:33N 43°25' E 004°53'0 0.0
2016-Feb-08 00:06N 43°25' E 004°53'0 0.0
2016-Feb-07 22:21N 43°25' E 004°53'0 0.0
2016-Feb-07 21:33N 43°25' E 004°53'0 0.0
2016-Feb-07 20:24N 43°25' E 004°53'0 0.0
2016-Feb-07 19:30N 43°25' E 004°53'0 0.0
2016-Feb-07 18:33N 43°25' E 004°53'0 0.0
2016-Feb-07 17:33N 43°25' E 004°53'0 0.0
2016-Feb-07 16:30N 43°25' E 004°53'0 0.0
2016-Feb-07 15:30N 43°25' E 004°53'0 0.0
2016-Feb-07 14:33N 43°25' E 004°53'0 0.0
2016-Feb-07 13:33N 43°25' E 004°53'0 0.0
2016-Feb-07 12:33N 43°25' E 004°53'0 0.0
2016-Feb-07 11:30N 43°25' E 004°53'0 0.0
2016-Feb-07 10:09N 43°25' E 004°53'0 0.0
2016-Feb-07 09:21N 43°25' E 004°53'0 0.0
2016-Feb-07 08:27N 43°25' E 004°53'0 0.0
2016-Feb-07 07:15N 43°25' E 004°53'0 0.0
2016-Feb-07 06:15N 43°25' E 004°53'0 0.0
2016-Feb-07 00:21N 43°25' E 004°53'0 0.0
2016-Feb-06 22:33N 43°25' E 004°53'0 0.0
2016-Feb-06 21:27N 43°25' E 004°53'0 0.0
2016-Feb-06 17:21N 43°25' E 004°53'0 0.0
2016-Feb-06 16:21N 43°25' E 004°53'0 0.0
2016-Feb-06 15:30N 43°25' E 004°53'0 0.0
2016-Feb-06 14:21N 43°25' E 004°53'0 0.0
2016-Feb-06 13:33N 43°25' E 004°53'0 0.0
2016-Feb-06 12:33N 43°25' E 004°53'0 0.0
2016-Feb-06 11:27N 43°25' E 004°53'0 0.0
2016-Feb-06 10:30N 43°25' E 004°53'0 0.0
2016-Feb-06 09:33N 43°25' E 004°53'0 0.0
2016-Feb-06 08:33N 43°25' E 004°53'0 0.0
2016-Feb-06 05:33N 43°25' E 004°53'0 0.0
2016-Feb-06 04:15N 43°25' E 004°53'0 0.0
2016-Feb-06 03:21N 43°25' E 004°53'0 0.0
2016-Feb-06 02:24N 43°25' E 004°53'0 0.0
2016-Feb-06 01:33N 43°25' E 004°53'0 0.0
2016-Feb-06 00:27N 43°25' E 004°53'3 3.2
2016-Feb-05 23:33N 43°23' E 004°56'1 0.6
2016-Feb-05 22:31N 43°22' E 004°56'0 0.0
2016-Feb-05 21:31N 43°22' E 004°56'0 0.1
2016-Feb-05 20:31N 43°22' E 004°56'5 5.2
2016-Feb-05 19:33N 43°18' E 005°00'9 8.7
2016-Feb-05 18:33N 43°10' E 004°60'1515.2
2016-Feb-05 17:33N 42°58' E 004°47'1514.6
2016-Feb-05 16:33N 42°46' E 004°35'3314.2
2016-Feb-05 14:14N 42°20' E 004°08'1414.5
2016-Feb-05 13:18N 42°09' E 003°57'5414.3
2016-Feb-05 09:29N 41°26' E 003°12'1414.5
2016-Feb-05 08:32N 41°15' E 003°01'1414.9
2016-Feb-05 07:34N 41°03' E 002°50'1514.9
2016-Feb-05 06:33N 40°52' E 002°37'1514.9
2016-Feb-05 05:33N 40°40' E 002°26'1515.0
2016-Feb-05 04:33N 40°28' E 002°13'1514.9
2016-Feb-05 03:34N 40°16' E 002°02'1514.8
2016-Feb-05 02:34N 40°05' E 001°50'1515.4
2016-Feb-05 01:33N 39°52' E 001°38'14814.8
2016-Feb-04 15:33N 37°52' W 000°14'1514.9
2016-Feb-04 14:33N 37°40' W 000°25'1414.5
2016-Feb-04 13:33N 37°29' W 000°36'1414.1
2016-Feb-04 12:34N 37°20' W 000°50'1414.2
2016-Feb-04 11:33N 37°10' W 001°03'20913.7
2016-Feb-03 20:20N 36°01' W 005°08'1316.2
2016-Feb-03 19:34N 35°58' W 005°23'50914.1
2016-Feb-02 07:33N 31°32' W 014°06'1414.2
2016-Feb-02 06:33N 31°24' W 014°20'4214.1
2016-Feb-02 03:33N 31°01' W 015°01'1814.1
2016-Feb-02 02:18N 30°51' W 015°18'1014.0
2016-Feb-02 01:34N 30°45' W 015°28'1414.2
2016-Feb-02 00:33N 30°37' W 015°42'3314.0
2016-Feb-01 22:10N 30°19' W 016°14'5114.0
2016-Feb-01 18:30N 29°50' W 017°04'  
Track history (hours):
 
Tides and Currents Weather Stations Pressure Air Temp Water Temp Dewpoint Dewpoint Depression Visibility Wind Speed Wind Dir Waves Ship Positions

Alpine Persefone

Last reported at 2016-Feb-09 09:32 UTC. Time now 2016-Feb-09 09:56 UTC.
Position N 42°41' E 005°20'.

Length 226 m; draft 9.9 m.

Type: Tanker. MMSI: 636013411.

Date/timePositionNaut miles runAvg speedWind from/ knotsBaromVisibWave heightAir tempDewpointWater temp
2016-Feb-09 09:32N 42°41' E 005°20'1312.9
2016-Feb-09 08:33N 42°53' E 005°13'1312.8
2016-Feb-09 07:33N 43°04' E 005°05'1312.9
2016-Feb-09 06:33N 43°16' E 004°59'9 9.4
2016-Feb-09 05:33N 43°25' E 004°53'0 0.4
2016-Feb-09 04:27N 43°25' E 004°53'0 0.0
2016-Feb-09 03:21N 43°25' E 004°53'0 0.0
2016-Feb-09 02:27N 43°25' E 004°53'0 0.0
2016-Feb-09 01:33N 43°25' E 004°53'0 0.0
2016-Feb-09 00:33N 43°25' E 004°53'0 0.0
2016-Feb-08 22:27N 43°25' E 004°53'0 0.0
2016-Feb-08 21:21N 43°25' E 004°53'0 0.0
2016-Feb-08 20:33N 43°25' E 004°53'0 0.0
2016-Feb-08 19:33N 43°25' E 004°53'0 0.0
2016-Feb-08 18:30N 43°25' E 004°53'0 0.0
2016-Feb-08 17:33N 43°25' E 004°53'0 0.0
2016-Feb-08 16:33N 43°25' E 004°53'0 0.0
2016-Feb-08 15:30N 43°25' E 004°53'0 0.0
2016-Feb-08 14:33N 43°25' E 004°53'0 0.0
2016-Feb-08 13:33N 43°25' E 004°53'0 0.0
2016-Feb-08 12:33N 43°25' E 004°53'0 0.0
2016-Feb-08 11:30N 43°25' E 004°53'0 0.0
2016-Feb-08 10:33N 43°25' E 004°53'0 0.0
2016-Feb-08 09:18N 43°25' E 004°53'0 0.0
2016-Feb-08 08:33N 43°25' E 004°53'0 0.0
2016-Feb-08 07:15N 43°25' E 004°53'0 0.0
2016-Feb-08 06:15N 43°25' E 004°53'0 0.0
2016-Feb-08 05:27N 43°25' E 004°53'0 0.0
2016-Feb-08 04:24N 43°25' E 004°53'0 0.0
2016-Feb-08 03:33N 43°25' E 004°53'0 0.0
2016-Feb-08 02:33N 43°25' E 004°53'0 0.0
2016-Feb-08 00:06N 43°25' E 004°53'0 0.0
2016-Feb-07 22:21N 43°25' E 004°53'0 0.0
2016-Feb-07 21:33N 43°25' E 004°53'0 0.0
2016-Feb-07 20:24N 43°25' E 004°53'0 0.0
2016-Feb-07 19:30N 43°25' E 004°53'0 0.0
2016-Feb-07 18:33N 43°25' E 004°53'0 0.0
2016-Feb-07 17:33N 43°25' E 004°53'0 0.0
2016-Feb-07 16:30N 43°25' E 004°53'0 0.0
2016-Feb-07 15:30N 43°25' E 004°53'0 0.0
2016-Feb-07 14:33N 43°25' E 004°53'0 0.0
2016-Feb-07 13:33N 43°25' E 004°53'0 0.0
2016-Feb-07 12:33N 43°25' E 004°53'0 0.0
2016-Feb-07 11:30N 43°25' E 004°53'0 0.0
2016-Feb-07 10:09N 43°25' E 004°53'0 0.0
2016-Feb-07 09:21N 43°25' E 004°53'0 0.0
2016-Feb-07 08:27N 43°25' E 004°53'0 0.0
2016-Feb-07 07:15N 43°25' E 004°53'0 0.0
2016-Feb-07 06:15N 43°25' E 004°53'0 0.0
2016-Feb-07 00:21N 43°25' E 004°53'0 0.0
2016-Feb-06 22:33N 43°25' E 004°53'0 0.0
2016-Feb-06 21:27N 43°25' E 004°53'0 0.0
2016-Feb-06 17:21N 43°25' E 004°53'0 0.0
2016-Feb-06 16:21N 43°25' E 004°53'0 0.0
2016-Feb-06 15:30N 43°25' E 004°53'0 0.0
2016-Feb-06 14:21N 43°25' E 004°53'0 0.0
2016-Feb-06 13:33N 43°25' E 004°53'0 0.0
2016-Feb-06 12:33N 43°25' E 004°53'0 0.0
2016-Feb-06 11:27N 43°25' E 004°53'0 0.0
2016-Feb-06 10:30N 43°25' E 004°53'0 0.0
2016-Feb-06 09:33N 43°25' E 004°53'0 0.0
2016-Feb-06 08:33N 43°25' E 004°53'0 0.0
2016-Feb-06 05:33N 43°25' E 004°53'0 0.0
2016-Feb-06 04:15N 43°25' E 004°53'0 0.0
2016-Feb-06 03:21N 43°25' E 004°53'0 0.0
2016-Feb-06 02:24N 43°25' E 004°53'0 0.0
2016-Feb-06 01:33N 43°25' E 004°53'0 0.0
2016-Feb-06 00:27N 43°25' E 004°53'3 3.2
2016-Feb-05 23:33N 43°23' E 004°56'1 0.6
2016-Feb-05 22:31N 43°22' E 004°56'0 0.0
2016-Feb-05 21:31N 43°22' E 004°56'0 0.1
2016-Feb-05 20:31N 43°22' E 004°56'5 5.2
2016-Feb-05 19:33N 43°18' E 005°00'9 8.7
2016-Feb-05 18:33N 43°10' E 004°60'1515.2
2016-Feb-05 17:33N 42°58' E 004°47'1514.6
2016-Feb-05 16:33N 42°46' E 004°35'3314.2
2016-Feb-05 14:14N 42°20' E 004°08'1414.5
2016-Feb-05 13:18N 42°09' E 003°57'5414.3
2016-Feb-05 09:29N 41°26' E 003°12'1414.5
2016-Feb-05 08:32N 41°15' E 003°01'1414.9
2016-Feb-05 07:34N 41°03' E 002°50'1514.9
2016-Feb-05 06:33N 40°52' E 002°37'1514.9
2016-Feb-05 05:33N 40°40' E 002°26'1515.0
2016-Feb-05 04:33N 40°28' E 002°13'1514.9
2016-Feb-05 03:34N 40°16' E 002°02'1514.8
2016-Feb-05 02:34N 40°05' E 001°50'1515.4
2016-Feb-05 01:33N 39°52' E 001°38'14814.8
2016-Feb-04 15:33N 37°52' W 000°14'1514.9
2016-Feb-04 14:33N 37°40' W 000°25'1414.5
2016-Feb-04 13:33N 37°29' W 000°36'1414.1
2016-Feb-04 12:34N 37°20' W 000°50'1414.2
2016-Feb-04 11:33N 37°10' W 001°03'20913.7
2016-Feb-03 20:20N 36°01' W 005°08'1316.2
2016-Feb-03 19:34N 35°58' W 005°23'50914.1
2016-Feb-02 07:33N 31°32' W 014°06'1414.2
2016-Feb-02 06:33N 31°24' W 014°20'4214.1
2016-Feb-02 03:33N 31°01' W 015°01'1814.1
2016-Feb-02 02:18N 30°51' W 015°18'1014.0
2016-Feb-02 01:34N 30°45' W 015°28'1414.2
2016-Feb-02 00:33N 30°37' W 015°42'3314.0
2016-Feb-01 22:10N 30°19' W 016°14'5114.0
2016-Feb-01 18:30N 29°50' W 017°04'  

Dump ship's entire track history